Time;durP1;ratioP1;P1;durP2;ratioP2;P2;SDS_P1;SDS_P2;PMS_P1;PMS_P2;Temp;Humidity;BMP_temperature;BMP_pressure;BME280_temperature;BME280_humidity;BME280_pressure;Samples;Min_cycle;Max_cycle;Signal;HPM_P1;HPM_P2
2022/05/25 00:01:04;;;;;;;16.70;15.80;;;;;;;;;;5034024;28;20033;-61
2022/05/25 00:03:32;;;;;;;17.30;16.30;;;;;;;;;;5033346;28;20037;-61
2022/05/25 00:05:58;;;;;;;16.02;15.13;;;;;;;;;;5035826;28;20025;-61
2022/05/25 00:08:24;;;;;;;16.50;15.60;;;;;;;;;;5036207;28;20301;-61
2022/05/25 00:10:50;;;;;;;18.50;17.50;;;;;;;;;;5034963;28;20068;-61
2022/05/25 00:13:15;;;;;;;18.55;17.55;;;;;;;;;;5033875;28;20840;-61
2022/05/25 00:15:41;;;;;;;19.08;18.05;;;;;;;;;;5031108;28;20116;-61
2022/05/25 00:18:06;;;;;;;16.05;15.15;;;;;;;;;;5034125;28;20064;-61
2022/05/25 00:20:32;;;;;;;13.95;13.15;;;;;;;;;;5032155;28;20070;-61
2022/05/25 00:22:58;;;;;;;14.18;13.38;;;;;;;;;;5035144;28;20117;-62
2022/05/25 00:25:33;;;;;;;14.85;13.95;;;;;;;;;;5036320;28;20048;-61
2022/05/25 00:28:08;;;;;;;12.77;12.05;;;;;;;;;;5036913;28;20056;-62
2022/05/25 00:30:35;;;;;;;13.35;12.55;;;;;;;;;;5037231;28;20340;-61
2022/05/25 00:33:01;;;;;;;14.98;14.10;;;;;;;;;;5033795;28;20037;-61
2022/05/25 00:35:28;;;;;;;15.07;14.23;;;;;;;;;;5034440;28;20044;-62
2022/05/25 00:37:54;;;;;;;14.65;13.85;;;;;;;;;;5035594;28;20073;-61
2022/05/25 00:40:32;;;;;;;12.77;12.07;;;;;;;;;;5036701;28;20047;-62
2022/05/25 00:42:58;;;;;;;13.07;12.30;;;;;;;;;;5038054;28;20029;-61
2022/05/25 00:45:23;;;;;;;13.23;12.43;;;;;;;;;;5036411;28;20034;-61
2022/05/25 00:47:50;;;;;;;8.43;7.93;;;;;;;;;;5036773;28;20074;-61
2022/05/25 00:50:19;;;;;;;7.95;7.45;;;;;;;;;;5034251;28;20043;-61
2022/05/25 00:52:47;;;;;;;7.47;6.97;;;;;;;;;;5036567;28;20028;-62
2022/05/25 00:55:19;;;;;;;7.40;6.90;;;;;;;;;;5035906;28;20471;-62
2022/05/25 00:57:48;;;;;;;7.28;6.78;;;;;;;;;;5032710;28;20084;-62
2022/05/25 01:00:18;;;;;;;7.35;6.85;;;;;;;;;;5033441;28;20034;-62
2022/05/25 01:02:46;;;;;;;6.93;6.43;;;;;;;;;;5036435;28;20033;-62
2022/05/25 01:05:14;;;;;;;7.10;6.60;;;;;;;;;;5035991;28;20033;-62
2022/05/25 01:07:49;;;;;;;8.45;7.95;;;;;;;;;;5035455;28;20025;-62
2022/05/25 01:10:34;;;;;;;6.47;6.05;;;;;;;;;;5036821;28;20461;-62
2022/05/25 01:13:18;;;;;;;8.25;7.57;;;;;;;;;;5037007;28;20108;-62
2022/05/25 01:15:52;;;;;;;7.70;7.20;;;;;;;;;;5036144;28;20352;-62
2022/05/25 01:18:37;;;;;;;8.55;8.02;;;;;;;;;;5040817;28;20037;-62
2022/05/25 01:21:13;;;;;;;8.50;8.00;;;;;;;;;;5040704;28;20407;-61
2022/05/25 01:23:55;;;;;;;7.30;6.80;;;;;;;;;;5042999;28;20410;-62
2022/05/25 01:26:42;;;;;;;6.90;6.40;;;;;;;;;;5039159;28;20039;-62
2022/05/25 01:29:25;;;;;;;6.47;6.07;;;;;;;;;;5039587;28;20458;-62
2022/05/25 01:32:00;;;;;;;7.20;6.70;;;;;;;;;;5037514;28;20025;-61
2022/05/25 01:34:40;;;;;;;7.35;6.85;;;;;;;;;;5038582;28;20060;-62
2022/05/25 01:37:19;;;;;;;8.07;7.57;;;;;;;;;;5035082;28;20053;-61
2022/05/25 01:39:52;;;;;;;7.32;6.82;;;;;;;;;;5036248;28;20033;-62
2022/05/25 01:42:27;;;;;;;7.78;7.28;;;;;;;;;;5033870;28;20086;-62
2022/05/25 01:44:57;;;;;;;7.13;6.63;;;;;;;;;;5038033;28;20336;-61
2022/05/25 01:47:26;;;;;;;6.80;6.30;;;;;;;;;;5040178;28;20033;-62
2022/05/25 01:50:00;;;;;;;7.70;7.20;;;;;;;;;;5034291;28;20131;-61
2022/05/25 01:52:31;;;;;;;7.05;6.55;;;;;;;;;;5035013;28;20516;-61
2022/05/25 01:55:01;;;;;;;7.03;6.53;;;;;;;;;;5035506;28;20359;-62
2022/05/25 01:57:30;;;;;;;8.25;7.65;;;;;;;;;;5040787;28;20029;-61
2022/05/25 01:59:56;;;;;;;6.70;6.22;;;;;;;;;;5038736;28;20033;-62
2022/05/25 02:05:12;;;;;;;7.57;7.07;;;;;;;;;;5034285;28;20099;-63
2022/05/25 02:08:01;;;;;;;6.22;5.82;;;;;;;;;;5034272;28;20030;-62
2022/05/25 02:10:57;;;;;;;6.50;6.00;;;;;;;;;;5039519;28;20118;-62
2022/05/25 02:13:42;;;;;;;6.50;6.10;;;;;;;;;;5032651;28;20046;-62
2022/05/25 02:16:25;;;;;;;6.53;6.07;;;;;;;;;;5036383;28;20031;-61
2022/05/25 02:19:15;;;;;;;6.63;6.13;;;;;;;;;;5038692;28;20052;-62
2022/05/25 02:21:44;;;;;;;6.20;5.80;;;;;;;;;;5037191;28;20379;-62
2022/05/25 02:24:38;;;;;;;6.72;6.28;;;;;;;;;;5036648;28;20029;-62
2022/05/25 02:27:15;;;;;;;6.50;6.05;;;;;;;;;;5018314;28;20037;-61
2022/05/25 02:29:46;;;;;;;7.68;7.07;;;;;;;;;;5039912;28;20049;-62
2022/05/25 02:32:17;;;;;;;6.82;6.32;;;;;;;;;;5036379;28;20355;-62
2022/05/25 02:34:45;;;;;;;;;;;;;;;;;;5038337;28;20120;-62
2022/05/25 02:37:11;;;;;;;6.68;6.18;;;;;;;;;;5038274;28;19932;-62
2022/05/25 02:39:36;;;;;;;7.05;6.53;;;;;;;;;;5018503;28;20033;-61
2022/05/25 02:42:13;;;;;;;7.05;6.55;;;;;;;;;;5036500;28;20055;-61
2022/05/25 02:44:38;;;;;;;7.70;6.97;;;;;;;;;;5037314;28;20043;-61
2022/05/25 02:47:03;;;;;;;6.80;6.30;;;;;;;;;;5037173;28;20037;-61
2022/05/25 02:49:29;;;;;;;7.03;6.53;;;;;;;;;;5033646;28;20132;-62
2022/05/25 02:51:54;;;;;;;6.57;6.18;;;;;;;;;;5033767;28;20025;-61
2022/05/25 02:54:22;;;;;;;6.93;6.43;;;;;;;;;;5035283;28;20392;-61
2022/05/25 02:56:48;;;;;;;7.95;7.45;;;;;;;;;;5035039;28;20025;-61
2022/05/25 02:59:14;;;;;;;6.97;6.47;;;;;;;;;;5036194;28;20366;-61
2022/05/25 03:01:39;;;;;;;6.80;6.30;;;;;;;;;;5037060;28;20029;-61
2022/05/25 03:04:05;;;;;;;7.55;7.05;;;;;;;;;;5036688;28;20020;-61
2022/05/25 03:06:31;;;;;;;7.30;6.80;;;;;;;;;;5034167;28;20379;-61
2022/05/25 03:08:56;;;;;;;7.55;7.00;;;;;;;;;;5036986;28;20032;-61
2022/05/25 03:11:22;;;;;;;6.53;6.13;;;;;;;;;;5037908;28;20021;-62
2022/05/25 03:13:48;;;;;;;6.40;6.00;;;;;;;;;;5031938;28;20098;-61
2022/05/25 03:16:16;;;;;;;6.97;6.47;;;;;;;;;;5034052;28;20036;-61
2022/05/25 03:18:43;;;;;;;7.07;6.53;;;;;;;;;;5038516;28;20017;-61
2022/05/25 03:21:08;;;;;;;6.32;5.93;;;;;;;;;;5037162;28;20112;-61
2022/05/25 03:23:34;;;;;;;6.90;6.40;;;;;;;;;;5038297;28;20111;-62
2022/05/25 03:25:59;;;;;;;6.80;6.30;;;;;;;;;;5040393;28;20029;-62
2022/05/25 03:28:25;;;;;;;6.25;5.85;;;;;;;;;;5041618;28;20546;-61
2022/05/25 03:30:50;;;;;;;6.40;5.90;;;;;;;;;;5035639;28;20033;-61
2022/05/25 03:33:16;;;;;;;7.00;6.50;;;;;;;;;;5034373;28;20036;-61
2022/05/25 03:35:41;;;;;;;6.15;5.68;;;;;;;;;;5036800;28;20030;-61
2022/05/25 03:38:08;;;;;;;7.00;6.50;;;;;;;;;;5038585;28;20103;-61
2022/05/25 03:40:34;;;;;;;6.28;5.88;;;;;;;;;;5036294;28;20492;-61
2022/05/25 03:42:59;;;;;;;8.65;5.88;;;;;;;;;;5041450;28;20108;-61
2022/05/25 03:45:25;;;;;;;7.18;6.68;;;;;;;;;;5034486;28;20390;-61
2022/05/25 03:47:50;;;;;;;6.35;5.95;;;;;;;;;;5034564;28;20116;-61
2022/05/25 03:50:18;;;;;;;6.53;6.03;;;;;;;;;;5034535;28;20035;-61
2022/05/25 03:52:44;;;;;;;7.07;6.57;;;;;;;;;;5031614;28;20040;-61
2022/05/25 03:55:09;;;;;;;7.53;7.03;;;;;;;;;;5037380;28;20045;-61
2022/05/25 03:57:35;;;;;;;6.40;6.00;;;;;;;;;;5035098;28;20120;-61
2022/05/25 04:00:00;;;;;;;6.35;5.95;;;;;;;;;;5032213;28;20045;-61
2022/05/25 04:02:25;;;;;;;6.35;5.95;;;;;;;;;;5035284;28;20021;-61
2022/05/25 04:05:07;;;;;;;7.22;6.72;;;;;;;;;;5032578;28;20030;-61
2022/05/25 04:07:40;;;;;;;6.15;5.75;;;;;;;;;;5033356;28;20036;-61
2022/05/25 04:10:07;;;;;;;6.03;5.63;;;;;;;;;;5032875;28;20025;-61
2022/05/25 04:12:33;;;;;;;6.82;6.32;;;;;;;;;;5030161;28;20347;-61
2022/05/25 04:14:59;;;;;;;5.97;5.55;;;;;;;;;;5035116;28;20029;-61
2022/05/25 04:17:24;;;;;;;6.40;5.90;;;;;;;;;;5036635;28;20100;-61
2022/05/25 04:19:50;;;;;;;7.10;6.60;;;;;;;;;;5033847;28;20025;-61
2022/05/25 04:22:16;;;;;;;6.60;6.13;;;;;;;;;;5035314;28;20103;-61
2022/05/25 04:24:42;;;;;;;6.45;6.05;;;;;;;;;;5036747;28;20036;-61
2022/05/25 04:27:07;;;;;;;5.85;5.45;;;;;;;;;;5039159;28;20044;-61
2022/05/25 04:29:36;;;;;;;5.80;5.40;;;;;;;;;;5036982;28;20029;-61
2022/05/25 04:32:01;;;;;;;5.68;5.28;;;;;;;;;;5031976;28;20113;-62
2022/05/25 04:34:27;;;;;;;6.35;5.93;;;;;;;;;;5034395;28;20116;-61
2022/05/25 04:36:52;;;;;;;6.40;5.90;;;;;;;;;;5033699;28;20029;-61
2022/05/25 04:39:17;;;;;;;6.18;5.78;;;;;;;;;;5024355;28;20033;-61
2022/05/25 04:41:43;;;;;;;6.70;6.22;;;;;;;;;;5039344;28;20020;-61
2022/05/25 04:44:09;;;;;;;6.93;6.43;;;;;;;;;;5035206;28;20036;-61
2022/05/25 04:46:35;;;;;;;6.47;5.97;;;;;;;;;;5040089;28;20458;-61
2022/05/25 04:49:00;;;;;;;7.65;6.15;;;;;;;;;;5039882;28;20036;-61
2022/05/25 04:51:27;;;;;;;6.65;6.15;;;;;;;;;;5036675;28;20090;-61
2022/05/25 04:53:53;;;;;;;6.55;6.05;;;;;;;;;;5036131;28;20133;-60
2022/05/25 04:59:02;;;;;;;6.70;6.22;;;;;;;;;;5036150;28;20052;-61
2022/05/25 05:01:30;;;;;;;7.45;6.95;;;;;;;;;;5038684;28;20021;-61
2022/05/25 05:03:55;;;;;;;7.32;6.72;;;;;;;;;;5035698;28;20442;-60
2022/05/25 05:06:21;;;;;;;6.57;6.10;;;;;;;;;;5038832;28;20043;-61
2022/05/25 05:08:46;;;;;;;6.60;6.10;;;;;;;;;;5037093;28;20026;-60
2022/05/25 05:11:18;;;;;;;7.10;6.60;;;;;;;;;;5035170;28;20033;-61
2022/05/25 05:13:44;;;;;;;8.05;7.45;;;;;;;;;;5033341;28;20033;-60
2022/05/25 05:16:13;;;;;;;8.90;8.30;;;;;;;;;;5037749;28;20044;-60
2022/05/25 05:18:39;;;;;;;9.05;8.45;;;;;;;;;;5040539;28;20072;-60
2022/05/25 05:21:05;;;;;;;8.82;8.23;;;;;;;;;;5037550;28;20411;-60
2022/05/25 05:23:30;;;;;;;7.38;6.88;;;;;;;;;;5036023;28;20052;-60
2022/05/25 05:25:56;;;;;;;9.02;8.43;;;;;;;;;;5038100;28;20108;-61
2022/05/25 05:28:28;;;;;;;9.80;9.10;;;;;;;;;;5040006;28;20577;-60
2022/05/25 05:30:55;;;;;;;9.95;8.63;;;;;;;;;;5036529;28;20450;-60
2022/05/25 05:33:22;;;;;;;9.52;8.93;;;;;;;;;;5041383;28;20032;-60
2022/05/25 05:35:51;;;;;;;9.25;8.65;;;;;;;;;;5035928;28;20033;-60
2022/05/25 05:38:19;;;;;;;8.90;8.30;;;;;;;;;;5038061;28;20035;-60
2022/05/25 05:40:44;;;;;;;9.10;8.50;;;;;;;;;;5039597;28;20116;-61
2022/05/25 05:43:12;;;;;;;11.93;11.20;;;;;;;;;;5034299;28;21322;-61
2022/05/25 05:45:41;;;;;;;8.20;7.70;;;;;;;;;;5037377;28;20087;-61
2022/05/25 05:48:15;;;;;;;11.27;10.57;;;;;;;;;;5033024;28;20044;-62
2022/05/25 05:50:42;;;;;;;10.98;10.27;;;;;;;;;;5035328;28;20362;-61
2022/05/25 05:53:10;;;;;;;8.02;7.53;;;;;;;;;;5034467;28;20135;-61
2022/05/25 05:55:36;;;;;;;7.88;7.38;;;;;;;;;;5037554;28;20041;-61
2022/05/25 05:58:01;;;;;;;9.60;8.93;;;;;;;;;;5036401;28;20043;-62
2022/05/25 06:00:26;;;;;;;10.02;9.43;;;;;;;;;;5033992;28;20112;-61
2022/05/25 06:02:52;;;;;;;11.45;10.75;;;;;;;;;;5040153;28;20094;-61
2022/05/25 06:05:17;;;;;;;10.93;10.30;;;;;;;;;;5036499;28;20037;-61
2022/05/25 06:07:43;;;;;;;12.35;11.65;;;;;;;;;;5039629;28;20025;-61
2022/05/25 06:10:09;;;;;;;13.02;12.23;;;;;;;;;;5034039;28;20029;-61
2022/05/25 06:12:35;;;;;;;12.18;11.48;;;;;;;;;;5033988;28;20031;-62
2022/05/25 06:19:25;;;;;;;11.30;10.60;;;;;;;;;;5036589;28;20036;-61
2022/05/25 06:20:31;;;;;;;10.35;9.75;;;;;;;;;;5036847;28;20037;-62
2022/05/25 06:22:57;;;;;;;11.27;10.50;;;;;;;;;;5038446;28;20037;-62
2022/05/25 06:25:22;;;;;;;9.38;8.77;;;;;;;;;;5036294;28;20025;-61
2022/05/25 06:27:47;;;;;;;9.52;8.93;;;;;;;;;;5041191;28;20029;-62
2022/05/25 06:30:13;;;;;;;9.73;9.10;;;;;;;;;;5039224;28;20112;-61
2022/05/25 06:32:38;;;;;;;8.15;7.65;;;;;;;;;;5035517;28;20041;-61
2022/05/25 06:35:04;;;;;;;8.35;7.85;;;;;;;;;;5037759;28;20098;-61
2022/05/25 06:37:30;;;;;;;7.10;6.60;;;;;;;;;;5039091;28;20033;-61
2022/05/25 06:39:55;;;;;;;7.03;6.53;;;;;;;;;;5036073;28;20033;-63
2022/05/25 06:42:20;;;;;;;5.68;5.28;;;;;;;;;;5033831;28;20367;-61
2022/05/25 06:44:46;;;;;;;6.38;5.93;;;;;;;;;;5035484;28;20041;-61
2022/05/25 06:47:16;;;;;;;7.35;6.85;;;;;;;;;;5035167;28;20108;-62
2022/05/25 06:49:41;;;;;;;5.50;5.10;;;;;;;;;;5032646;28;20120;-61
2022/05/25 06:52:11;;;;;;;6.75;6.25;;;;;;;;;;5037586;28;20140;-61
2022/05/25 06:54:37;;;;;;;6.68;6.18;;;;;;;;;;5036210;28;20095;-61
2022/05/25 06:57:03;;;;;;;6.78;6.28;;;;;;;;;;5037468;28;20411;-61
2022/05/25 06:59:29;;;;;;;7.45;6.95;;;;;;;;;;5037193;28;20108;-61
2022/05/25 07:01:54;;;;;;;7.75;7.25;;;;;;;;;;5036898;28;20387;-62
2022/05/25 07:04:19;;;;;;;8.23;7.60;;;;;;;;;;5036943;28;20053;-62
2022/05/25 07:06:45;;;;;;;14.45;13.65;;;;;;;;;;5029087;28;20051;-63
2022/05/25 07:09:10;;;;;;;8.45;7.95;;;;;;;;;;5029663;28;20042;-62
2022/05/25 07:11:36;;;;;;;7.40;6.90;;;;;;;;;;5030369;28;20108;-61
2022/05/25 07:14:02;;;;;;;9.45;8.85;;;;;;;;;;5032950;28;20037;-61
2022/05/25 07:16:28;;;;;;;13.82;12.95;;;;;;;;;;5032302;28;20120;-62
2022/05/25 07:18:53;;;;;;;14.25;13.35;;;;;;;;;;5032408;28;20389;-62
2022/05/25 07:21:21;;;;;;;13.75;12.95;;;;;;;;;;5033102;28;20363;-62
2022/05/25 07:23:48;;;;;;;8.55;8.02;;;;;;;;;;5032389;28;20681;-61
2022/05/25 07:26:15;;;;;;;10.77;10.10;;;;;;;;;;5029299;28;20127;-61
2022/05/25 07:28:41;;;;;;;12.32;11.63;;;;;;;;;;5028516;28;20044;-62
2022/05/25 07:31:13;;;;;;;7.80;7.30;;;;;;;;;;5028551;28;20037;-62
2022/05/25 07:33:41;;;;;;;11.00;10.32;;;;;;;;;;5030321;28;20041;-62
2022/05/25 07:36:10;;;;;;;11.15;10.48;;;;;;;;;;5031196;28;20152;-61
2022/05/25 07:38:37;;;;;;;9.82;9.13;;;;;;;;;;5034454;28;20463;-61
2022/05/25 07:41:03;;;;;;;8.38;7.78;;;;;;;;;;5031738;28;20033;-62
2022/05/25 07:43:31;;;;;;;7.43;6.93;;;;;;;;;;5034925;28;20043;-62
2022/05/25 07:45:57;;;;;;;7.35;6.85;;;;;;;;;;5033882;28;20033;-62
2022/05/25 07:48:22;;;;;;;7.90;7.40;;;;;;;;;;5035438;28;20029;-61
2022/05/25 07:50:48;;;;;;;9.00;8.40;;;;;;;;;;5032000;28;20107;-61
2022/05/25 07:56:00;;;;;;;6.80;6.30;;;;;;;;;;5034820;28;20601;-61
2022/05/25 07:58:26;;;;;;;6.97;6.47;;;;;;;;;;5026345;28;20053;-61
2022/05/25 08:00:55;;;;;;;11.15;10.45;;;;;;;;;;5025378;28;20491;-61
2022/05/25 08:06:05;;;;;;;6.60;6.10;;;;;;;;;;5031525;28;20440;-62
2022/05/25 08:08:31;;;;;;;6.53;6.13;;;;;;;;;;5036916;28;20478;-61
2022/05/25 08:11:04;;;;;;;6.30;5.90;;;;;;;;;;5032455;28;20065;-62
2022/05/25 08:13:33;;;;;;;8.05;7.45;;;;;;;;;;5032597;28;20095;-61
2022/05/25 08:15:59;;;;;;;6.60;6.15;;;;;;;;;;5034020;28;20022;-60
2022/05/25 08:18:24;;;;;;;6.93;6.43;;;;;;;;;;5033321;28;20033;-61
2022/05/25 08:20:49;;;;;;;7.13;6.63;;;;;;;;;;5029913;28;20033;-60
2022/05/25 08:23:16;;;;;;;7.43;6.93;;;;;;;;;;5027340;28;20040;-61
2022/05/25 08:25:43;;;;;;;8.90;8.18;;;;;;;;;;5035957;28;20570;-61
2022/05/25 08:28:09;;;;;;;7.82;7.32;;;;;;;;;;5038307;28;20382;-61
2022/05/25 08:30:39;;;;;;;7.88;7.38;;;;;;;;;;5032925;28;20064;-61
2022/05/25 08:33:05;;;;;;;8.30;7.80;;;;;;;;;;5036201;28;20032;-60
2022/05/25 08:35:31;;;;;;;8.15;7.65;;;;;;;;;;5036063;28;20037;-61
2022/05/25 08:37:58;;;;;;;8.52;8.02;;;;;;;;;;5036135;28;20063;-61
2022/05/25 08:40:25;;;;;;;7.63;7.13;;;;;;;;;;5034397;28;20044;-60
2022/05/25 08:43:07;;;;;;;7.70;7.20;;;;;;;;;;5039494;28;20521;-60
2022/05/25 08:45:47;;;;;;;7.70;7.20;;;;;;;;;;5036444;28;20382;-60
2022/05/25 08:48:15;;;;;;;7.20;6.65;;;;;;;;;;5035196;28;20148;-61
2022/05/25 08:50:41;;;;;;;7.60;7.10;;;;;;;;;;5035627;28;20362;-60
2022/05/25 08:53:10;;;;;;;7.40;6.90;;;;;;;;;;5035725;28;20510;-61
2022/05/25 08:55:54;;;;;;;5.97;5.57;;;;;;;;;;5036319;28;20362;-60
2022/05/25 08:58:23;;;;;;;6.65;6.22;;;;;;;;;;5034956;28;20025;-60
2022/05/25 09:00:52;;;;;;;8.70;8.18;;;;;;;;;;5031463;28;20041;-60
2022/05/25 09:03:37;;;;;;;8.25;7.75;;;;;;;;;;5031461;28;20033;-60
2022/05/25 09:06:13;;;;;;;8.10;7.60;;;;;;;;;;5035160;28;20362;-61
2022/05/25 09:08:45;;;;;;;7.75;7.25;;;;;;;;;;5035175;28;20516;-60
2022/05/25 09:11:15;;;;;;;19.23;18.20;;;;;;;;;;5032653;28;20041;-61
2022/05/25 09:13:43;;;;;;;;;;;;;;;;;;5034537;28;20091;-60
2022/05/25 09:16:22;;;;;;;9.05;8.45;;;;;;;;;;5037135;28;19962;-61
2022/05/25 09:19:09;;;;;;;14.93;13.93;;;;;;;;;;5035138;28;20086;-61
2022/05/25 09:21:37;;;;;;;17.35;16.40;;;;;;;;;;5033722;28;20041;-60
2022/05/25 09:24:11;;;;;;;22.85;21.63;;;;;;;;;;5034615;28;20040;-61
2022/05/25 09:26:36;;;;;;;13.68;12.88;;;;;;;;;;5035956;28;20359;-61
2022/05/25 09:29:07;;;;;;;23.13;21.90;;;;;;;;;;5036854;28;20044;-61
2022/05/25 09:31:34;;;;;;;;;;;;;;;;;;5039648;28;20033;-62
2022/05/25 09:34:06;;;;;;;17.60;16.63;;;;;;;;;;5037343;28;20461;-60
2022/05/25 09:36:38;;;;;;;24.55;23.25;;;;;;;;;;5033687;28;20022;-61
2022/05/25 09:39:26;;;;;;;29.40;27.88;;;;;;;;;;5035857;28;20946;-61
2022/05/25 09:41:58;;;;;;;32.08;30.38;;;;;;;;;;5037341;28;20039;-60
2022/05/25 09:44:23;;;;;;;34.65;32.85;;;;;;;;;;5035256;28;20041;-60
2022/05/25 09:46:59;;;;;;;30.77;29.17;;;;;;;;;;5037694;28;20035;-61
2022/05/25 09:49:47;;;;;;;16.15;15.25;;;;;;;;;;5034551;28;20037;-61
2022/05/25 09:52:21;;;;;;;30.77;29.17;;;;;;;;;;5034669;28;20068;-61
2022/05/25 09:54:57;;;;;;;14.48;13.68;;;;;;;;;;5033723;28;20033;-61
2022/05/25 09:57:30;;;;;;;39.40;37.40;;;;;;;;;;5036775;28;20100;-61
2022/05/25 10:00:03;;;;;;;15.75;14.88;;;;;;;;;;5036822;28;20112;-62
2022/05/25 10:02:48;;;;;;;24.13;22.85;;;;;;;;;;5035491;28;20045;-62
2022/05/25 10:05:15;;;;;;;15.27;14.38;;;;;;;;;;5034147;28;20064;-62
2022/05/25 10:08:00;;;;;;;18.65;17.60;;;;;;;;;;5036202;28;20051;-62
2022/05/25 10:10:33;;;;;;;19.15;18.05;;;;;;;;;;5033923;28;20025;-59
2022/05/25 10:13:14;;;;;;;13.25;12.45;;;;;;;;;;5034262;28;20044;-62
2022/05/25 10:15:39;;;;;;;12.32;11.63;;;;;;;;;;5036062;28;20474;-60
2022/05/25 10:18:05;;;;;;;12.93;12.13;;;;;;;;;;5036527;28;20029;-61
2022/05/25 10:20:42;;;;;;;13.05;12.30;;;;;;;;;;5034564;28;20039;-61
2022/05/25 10:23:13;;;;;;;13.98;13.18;;;;;;;;;;5038525;28;20029;-61
2022/05/25 10:25:47;;;;;;;;;;;;;;;;;;5037962;28;20094;-61
2022/05/25 10:28:28;;;;;;;8.20;7.70;;;;;;;;;;5038812;28;19974;-61
2022/05/25 10:36:45;;;;;;;9.50;8.90;;;;;;;;;;5034442;28;20120;-61
2022/05/25 10:37:13;;;;;;;10.88;10.23;;;;;;;;;;5035682;28;20477;-61
2022/05/25 10:39:46;;;;;;;12.45;11.75;;;;;;;;;;5035767;28;20107;-61
2022/05/25 10:42:46;;;;;;;11.88;11.18;;;;;;;;;;5038480;28;20138;-61
2022/05/25 10:45:15;;;;;;;23.50;22.25;;;;;;;;;;5029470;28;20133;-60
2022/05/25 10:47:54;;;;;;;12.23;11.43;;;;;;;;;;5036885;28;20030;-61
2022/05/25 10:50:45;;;;;;;13.75;12.95;;;;;;;;;;5036446;28;20059;-61
2022/05/25 10:53:37;;;;;;;18.92;17.90;;;;;;;;;;5036395;28;20489;-60
2022/05/25 10:56:17;;;;;;;18.58;17.52;;;;;;;;;;5050592;28;20434;-61
2022/05/25 10:59:25;;;;;;;20.25;19.15;;;;;;;;;;5034653;28;20354;-60
2022/05/25 11:02:22;;;;;;;21.00;19.88;;;;;;;;;;5034671;28;20601;-61
2022/05/25 11:05:24;;;;;;;23.45;22.25;;;;;;;;;;5031209;28;20033;-61
2022/05/25 11:07:54;;;;;;;20.23;19.13;;;;;;;;;;5032907;28;20033;-61
2022/05/25 11:10:35;;;;;;;24.45;23.15;;;;;;;;;;5035303;28;20477;-60
2022/05/25 11:13:18;;;;;;;26.13;24.70;;;;;;;;;;5031491;28;20037;-62
2022/05/25 11:16:05;;;;;;;20.90;19.77;;;;;;;;;;5037151;28;20127;-60
2022/05/25 11:18:54;;;;;;;17.90;16.92;;;;;;;;;;5039123;28;20025;-60
2022/05/25 11:21:52;;;;;;;20.10;19.00;;;;;;;;;;5033930;28;20025;-61
2022/05/25 11:24:42;;;;;;;14.38;13.57;;;;;;;;;;5036428;28;20357;-60
2022/05/25 11:27:28;;;;;;;17.70;16.67;;;;;;;;;;5033383;28;20139;-61
2022/05/25 11:30:08;;;;;;;19.70;18.63;;;;;;;;;;5033202;28;20033;-60
2022/05/25 11:33:00;;;;;;;22.83;21.63;;;;;;;;;;5032186;28;20033;-61
2022/05/25 11:35:39;;;;;;;24.88;23.55;;;;;;;;;;5038053;28;20047;-61
2022/05/25 11:38:17;;;;;;;19.80;18.70;;;;;;;;;;5034986;28;20080;-60
2022/05/25 11:41:16;;;;;;;20.35;19.25;;;;;;;;;;5035761;28;20102;-60
2022/05/25 11:43:42;;;;;;;18.02;17.02;;;;;;;;;;5034118;28;20026;-61
2022/05/25 11:46:27;;;;;;;16.35;15.45;;;;;;;;;;5032926;28;20033;-61
2022/05/25 11:49:13;;;;;;;19.17;18.15;;;;;;;;;;5028018;28;20079;-61
2022/05/25 11:52:03;;;;;;;21.60;20.45;;;;;;;;;;5030969;28;20064;-61
2022/05/25 11:55:03;;;;;;;16.00;15.10;;;;;;;;;;5035560;28;20033;-60
2022/05/25 11:57:43;;;;;;;18.75;17.75;;;;;;;;;;5038064;28;20553;-62
2022/05/25 12:00:21;;;;;;;;;;;;;;;;;;5032006;28;20433;-61
2022/05/25 12:03:31;;;;;;;13.38;12.57;;;;;;;;;;5035650;28;19916;-62
2022/05/25 12:06:06;;;;;;;11.65;10.95;;;;;;;;;;4992672;28;20038;-62
2022/05/25 12:08:58;;;;;;;14.00;13.20;;;;;;;;;;5028753;28;20073;-62
2022/05/25 12:11:37;;;;;;;12.10;11.40;;;;;;;;;;5031592;28;20052;-62
2022/05/25 12:14:31;;;;;;;12.25;11.55;;;;;;;;;;5032124;28;20053;-59
2022/05/25 12:17:07;;;;;;;17.00;16.10;;;;;;;;;;5035762;28;20033;-60
2022/05/25 12:19:35;;;;;;;31.83;30.20;;;;;;;;;;5031131;28;20044;-60
2022/05/25 12:22:11;;;;;;;48.55;46.10;;;;;;;;;;5026617;28;20415;-59
2022/05/25 12:25:08;;;;;;;36.78;34.88;;;;;;;;;;5036411;28;20514;-60
2022/05/25 12:27:41;;;;;;;25.48;24.15;;;;;;;;;;5026849;28;20049;-60
2022/05/25 12:30:11;;;;;;;35.58;33.75;;;;;;;;;;5030353;28;20509;-60
2022/05/25 12:32:38;;;;;;;28.05;26.58;;;;;;;;;;5029292;28;20037;-59
2022/05/25 12:35:05;;;;;;;20.77;19.65;;;;;;;;;;5025002;28;20114;-60
2022/05/25 12:37:42;;;;;;;19.80;18.70;;;;;;;;;;5030229;28;20036;-60
2022/05/25 12:40:11;;;;;;;17.35;16.35;;;;;;;;;;5027841;28;20524;-60
2022/05/25 12:42:37;;;;;;;13.73;12.93;;;;;;;;;;5029996;28;20048;-59
2022/05/25 12:50:55;;;;;;;12.65;11.95;;;;;;;;;;5027292;28;20037;-59
2022/05/25 12:54:01;;;;;;;15.27;14.38;;;;;;;;;;5026608;28;20037;-59
2022/05/25 12:56:26;;;;;;;19.17;18.10;;;;;;;;;;5025351;28;20459;-60
2022/05/25 12:58:55;;;;;;;29.23;27.70;;;;;;;;;;5022333;28;20032;-60
2022/05/25 13:01:25;;;;;;;32.42;30.73;;;;;;;;;;5030464;28;20064;-60
2022/05/25 13:03:50;;;;;;;50.92;48.33;;;;;;;;;;5030684;28;20045;-60
2022/05/25 13:06:21;;;;;;;22.77;21.58;;;;;;;;;;5028422;28;20036;-59
2022/05/25 13:08:47;;;;;;;22.27;21.08;;;;;;;;;;5031041;28;20029;-59
2022/05/25 13:11:39;;;;;;;22.60;21.40;;;;;;;;;;5026267;28;20266;-60
2022/05/25 13:14:16;;;;;;;30.00;28.40;;;;;;;;;;5030271;28;20082;-59
2022/05/25 13:16:42;;;;;;;32.35;30.70;;;;;;;;;;5028484;28;20705;-60
2022/05/25 13:19:32;;;;;;;30.50;28.90;;;;;;;;;;5033176;28;20037;-60
2022/05/25 13:22:03;;;;;;;31.33;29.73;;;;;;;;;;5028135;28;20474;-59
2022/05/25 13:24:50;;;;;;;37.60;35.67;;;;;;;;;;5025573;28;20032;-59
2022/05/25 13:27:21;;;;;;;41.08;38.97;;;;;;;;;;5026283;28;20360;-60
2022/05/25 13:30:01;;;;;;;40.80;38.70;;;;;;;;;;5024353;28;20055;-60
2022/05/25 13:32:48;;;;;;;37.65;35.72;;;;;;;;;;5024449;28;20073;-60
2022/05/25 13:35:48;;;;;;;41.90;39.75;;;;;;;;;;5028206;28;20036;-60
2022/05/25 13:38:32;;;;;;;34.25;32.50;;;;;;;;;;5024722;28;20049;-60
2022/05/25 13:41:03;;;;;;;60.65;57.60;;;;;;;;;;5031581;28;20520;-60
2022/05/25 13:43:36;;;;;;;52.00;49.38;;;;;;;;;;5032057;28;20033;-60
2022/05/25 13:46:02;;;;;;;46.85;44.45;;;;;;;;;;5028355;28;20035;-59
2022/05/25 13:48:27;;;;;;;33.95;31.88;;;;;;;;;;5026720;28;20474;-60
2022/05/25 13:50:57;;;;;;;34.22;32.42;;;;;;;;;;5028327;28;20072;-60
2022/05/25 13:53:37;;;;;;;35.45;33.55;;;;;;;;;;5026418;28;20029;-60
2022/05/25 13:56:12;;;;;;;59.15;56.15;;;;;;;;;;5024677;28;20040;-61
2022/05/25 13:58:44;;;;;;;47.05;44.63;;;;;;;;;;5027353;28;20042;-60
2022/05/25 14:01:13;;;;;;;47.13;44.72;;;;;;;;;;5029466;28;20049;-60
2022/05/25 14:03:47;;;;;;;41.03;38.92;;;;;;;;;;5029075;28;20438;-60
2022/05/25 14:06:14;;;;;;;43.83;41.60;;;;;;;;;;5025914;28;20376;-60
2022/05/25 14:11:39;;;;;;;29.27;27.77;;;;;;;;;;5036981;28;20033;-59
2022/05/25 14:14:19;;;;;;;27.73;26.27;;;;;;;;;;5036420;28;20130;-59
2022/05/25 14:16:57;;;;;;;32.13;30.42;;;;;;;;;;5033510;28;20497;-59
2022/05/25 14:19:26;;;;;;;19.58;18.50;;;;;;;;;;5030067;28;20044;-59
2022/05/25 14:21:54;;;;;;;17.27;16.30;;;;;;;;;;5031938;28;20037;-60
2022/05/25 14:24:47;;;;;;;23.80;22.50;;;;;;;;;;5036106;28;20037;-60
2022/05/25 14:27:26;;;;;;;18.45;17.45;;;;;;;;;;5036203;28;20039;-59
2022/05/25 14:29:53;;;;;;;28.77;27.25;;;;;;;;;;5036611;28;20324;-60
2022/05/25 14:32:28;;;;;;;38.72;36.65;;;;;;;;;;5033229;28;20025;-59
2022/05/25 14:34:57;;;;;;;73.53;69.85;;;;;;;;;;5040285;28;20036;-60
2022/05/25 14:37:27;;;;;;;67.03;63.67;;;;;;;;;;5033901;28;20525;-60
2022/05/25 14:39:55;;;;;;;;;;;;;;;;;;5033138;28;20045;-59
2022/05/25 14:42:26;;;;;;;88.18;83.78;;;;;;;;;;5029414;28;19928;-59
2022/05/25 14:45:13;;;;;;;108.60;103.25;;;;;;;;;;5030990;28;20032;-59
2022/05/25 14:47:49;;;;;;;133.13;126.53;;;;;;;;;;5029429;28;20447;-59
2022/05/25 14:50:46;;;;;;;142.13;135.07;;;;;;;;;;5028244;28;20057;-59
2022/05/25 14:53:20;;;;;;;131.50;124.97;;;;;;;;;;5027719;28;20053;-59
2022/05/25 14:55:46;;;;;;;128.32;121.95;;;;;;;;;;5028292;28;20039;-59
2022/05/25 14:58:17;;;;;;;118.85;112.97;;;;;;;;;;5027442;28;20034;-59
2022/05/25 15:00:50;;;;;;;119.55;113.65;;;;;;;;;;5030340;28;20359;-59
2022/05/25 15:03:58;;;;;;;99.70;94.78;;;;;;;;;;5029390;28;20128;-59
2022/05/25 15:06:29;;;;;;;61.35;58.25;;;;;;;;;;5033084;28;20030;-59
2022/05/25 15:08:57;;;;;;;63.00;59.85;;;;;;;;;;5034792;28;20045;-59
2022/05/25 15:11:38;;;;;;;66.97;63.65;;;;;;;;;;5037913;28;20036;-59
2022/05/25 15:19:43;;;;;;;65.55;62.28;;;;;;;;;;5036361;28;20060;-58
2022/05/25 15:22:13;;;;;;;58.55;55.63;;;;;;;;;;5033107;28;20029;-59
2022/05/25 15:24:39;;;;;;;48.03;45.60;;;;;;;;;;5035378;28;20033;-58
2022/05/25 15:27:07;;;;;;;54.38;51.65;;;;;;;;;;5028969;28;20490;-59
2022/05/25 15:29:44;;;;;;;68.90;65.47;;;;;;;;;;5027837;28;20036;-59
2022/05/25 15:32:09;;;;;;;69.70;66.20;;;;;;;;;;5028078;28;20033;-59